Time;durP1;ratioP1;P1;durP2;ratioP2;P2;SDS_P1;SDS_P2;PMS_P1;PMS_P2;Temp;Humidity;BMP_temperature;BMP_pressure;BME280_temperature;BME280_humidity;BME280_pressure;Samples;Min_cycle;Max_cycle;Signal;HPM_P1;HPM_P2
2023/02/05 00:00:19;;;;;;;2.10;1.90;;;-3.40;99.90;-3.90;102785.00;;;;4814593;28;93063;-67
2023/02/05 00:02:44;;;;;;;2.93;1.70;;;-3.20;99.90;-3.90;102778.00;;;;4814103;28;94812;-67
2023/02/05 00:05:10;;;;;;;1.60;1.47;;;-3.30;99.90;-3.90;102784.00;;;;4810919;28;123429;-67
2023/02/05 00:07:36;;;;;;;3.73;2.37;;;-3.40;99.90;-3.90;102792.00;;;;4814639;28;92843;-67
2023/02/05 00:10:02;;;;;;;6.33;2.43;;;-3.30;99.90;-3.90;102781.00;;;;4810829;29;108397;-67
2023/02/05 00:12:27;;;;;;;1.50;1.40;;;-3.80;99.90;-3.90;102779.00;;;;4811054;29;93964;-67
2023/02/05 00:14:53;;;;;;;1.73;1.47;;;-3.40;99.90;-3.90;102787.00;;;;4810582;28;102178;-67
2023/02/05 00:17:19;;;;;;;2.50;1.60;;;-3.40;99.90;-3.90;102791.00;;;;4812850;28;110936;-67
2023/02/05 00:19:44;;;;;;;6.67;1.63;;;-3.40;99.90;-3.90;102776.00;;;;4813549;29;107344;-67
2023/02/05 00:22:10;;;;;;;2.10;1.40;;;-3.40;99.90;-3.90;102772.00;;;;4814355;28;121078;-67
2023/02/05 00:24:35;;;;;;;3.67;1.93;;;-3.40;99.90;-3.90;102776.00;;;;4812646;28;121721;-66
2023/02/05 00:27:01;;;;;;;3.13;1.60;;;-3.40;99.90;-3.90;102774.00;;;;4812507;28;110371;-67
2023/02/05 00:29:27;;;;;;;2.93;1.50;;;-3.30;99.90;-3.90;102786.00;;;;4816571;28;93026;-67
2023/02/05 00:31:52;;;;;;;1.83;1.67;;;-3.40;99.90;-3.90;102777.00;;;;4815152;29;120761;-66
2023/02/05 00:34:18;;;;;;;2.30;1.40;;;-3.50;99.90;-4.00;102775.00;;;;4813886;28;122824;-67
2023/02/05 00:36:44;;;;;;;1.73;1.50;;;-3.50;99.90;-4.00;102774.00;;;;4814010;28;111878;-66
2023/02/05 00:39:11;;;;;;;3.80;1.70;;;-3.40;99.90;-4.00;102782.00;;;;4813039;28;108876;-66
2023/02/05 00:41:37;;;;;;;4.00;1.70;;;-3.60;99.90;-4.10;102792.00;;;;4813669;28;93762;-66
2023/02/05 00:44:03;;;;;;;3.50;1.70;;;-3.60;99.90;-4.10;102785.00;;;;4814983;28;122971;-66
2023/02/05 00:46:29;;;;;;;4.13;2.37;;;-3.60;99.90;-4.10;102770.00;;;;4815150;28;104327;-66
2023/02/05 00:48:55;;;;;;;3.73;2.20;;;-3.60;99.90;-4.10;102784.00;;;;4809820;28;108871;-66
2023/02/05 00:51:20;;;;;;;4.57;2.20;;;-3.60;99.90;-4.20;102775.00;;;;4813272;28;123929;-66
2023/02/05 00:53:46;;;;;;;4.70;1.80;;;-3.50;99.90;-4.20;102794.00;;;;4817764;28;121620;-66
2023/02/05 00:56:12;;;;;;;3.10;1.97;;;-3.70;99.90;-4.20;102798.00;;;;4817679;28;108814;-66
2023/02/05 00:58:37;;;;;;;5.43;2.27;;;-3.70;99.90;-4.20;102797.00;;;;4812901;28;108911;-66
2023/02/05 01:01:04;;;;;;;2.10;1.63;;;-3.70;99.90;-4.20;102804.00;;;;4813403;28;121254;-66
2023/02/05 01:03:29;;;;;;;2.97;1.53;;;-3.40;99.90;-4.30;102802.00;;;;4814630;28;94533;-66
2023/02/05 01:05:55;;;;;;;3.83;1.33;;;-3.70;99.90;-4.30;102801.00;;;;4815553;28;109930;-66
2023/02/05 01:08:22;;;;;;;1.63;1.40;;;-3.80;99.90;-4.30;102786.00;;;;4814433;28;92494;-66
2023/02/05 01:10:49;;;;;;;3.17;2.03;;;-3.70;99.90;-4.30;102788.00;;;;4817225;28;93611;-66
2023/02/05 01:13:16;;;;;;;2.23;1.93;;;-3.00;99.90;-4.30;102782.00;;;;4816097;28;114158;-66
2023/02/05 01:15:42;;;;;;;1.13;1.03;;;-3.60;99.90;-4.40;102791.00;;;;4814980;28;93773;-66
2023/02/05 01:18:09;;;;;;;1.17;1.00;;;-3.80;99.90;-4.40;102792.00;;;;4816021;28;92990;-66
2023/02/05 01:20:37;;;;;;;3.33;1.27;;;-3.80;99.90;-4.40;102788.00;;;;4815494;28;93377;-66
2023/02/05 01:23:03;;;;;;;1.60;1.27;;;-3.90;99.90;-4.40;102778.00;;;;4817600;28;93415;-66
2023/02/05 01:25:29;;;;;;;0.80;0.80;;;-3.10;99.90;-4.40;102774.00;;;;4816093;28;110411;-66
2023/02/05 01:27:55;;;;;;;2.23;1.13;;;-3.90;99.90;-4.50;102781.00;;;;4815791;28;108862;-67
2023/02/05 01:30:21;;;;;;;2.17;1.07;;;-3.90;99.90;-4.50;102766.00;;;;4814795;29;121479;-66
2023/02/05 01:32:46;;;;;;;1.73;1.20;;;-3.90;99.90;-4.60;102784.00;;;;4813317;29;93499;-66
2023/02/05 01:35:12;;;;;;;0.93;0.93;;;-4.00;99.90;-4.60;102772.00;;;;4815768;28;92875;-66
2023/02/05 01:37:38;;;;;;;2.23;1.30;;;-3.90;99.90;-4.60;102772.00;;;;4813845;28;93931;-66
2023/02/05 01:40:04;;;;;;;1.20;1.10;;;-4.10;99.90;-4.60;102759.00;;;;4813342;28;124022;-66
2023/02/05 01:42:31;;;;;;;1.00;0.90;;;-4.40;99.90;-4.60;102762.00;;;;4814900;28;105697;-66
2023/02/05 01:45:30;;;;;;;1.50;1.30;;;-4.00;99.90;-4.70;102741.00;;;;4814529;28;93425;-66
2023/02/05 01:48:00;;;;;;;1.17;1.07;;;-4.10;99.90;-4.70;102737.00;;;;4816040;28;94160;-66
2023/02/05 01:50:36;;;;;;;2.53;1.37;;;-4.10;99.90;-4.70;102731.00;;;;4816829;28;93811;-67
2023/02/05 01:53:15;;;;;;;3.10;1.40;;;-4.00;99.90;-4.70;102732.00;;;;4815709;28;113542;-66
2023/02/05 01:55:57;;;;;;;1.63;1.23;;;-4.20;99.90;-4.80;102737.00;;;;4812301;29;93035;-66
2023/02/05 01:58:25;;;;;;;1.87;1.60;;;-4.20;99.90;-4.80;102729.00;;;;4816636;28;92303;-66
2023/02/05 02:00:51;;;;;;;2.60;1.37;;;-4.30;99.90;-4.80;102728.00;;;;4814420;28;94784;-66
2023/02/05 02:03:17;;;;;;;1.97;1.03;;;-4.20;99.90;-4.90;102720.00;;;;4808934;28;122209;-68
2023/02/05 02:05:42;;;;;;;1.60;1.20;;;-4.20;99.90;-4.90;102709.00;;;;4811197;28;110906;-66
2023/02/05 02:08:11;;;;;;;0.80;0.80;;;-4.40;99.90;-4.90;102714.00;;;;4813013;28;109458;-67
2023/02/05 02:10:39;;;;;;;1.83;1.10;;;-4.20;99.90;-4.90;102721.00;;;;4812237;29;117306;-66
2023/02/05 02:13:04;;;;;;;5.93;1.63;;;-4.20;99.90;-4.90;102719.00;;;;4811462;28;114629;-68
2023/02/05 02:15:31;;;;;;;5.53;1.30;;;-4.30;99.90;-5.00;102712.00;;;;4828979;28;109577;-66
2023/02/05 02:18:24;;;;;;;1.10;0.93;;;-4.30;99.90;-5.00;102698.00;;;;4813494;28;107917;-66
2023/02/05 02:21:18;;;;;;;2.27;1.40;;;-4.50;99.90;-5.10;102700.00;;;;4825313;28;92871;-66
2023/02/05 02:24:12;;;;;;;0.87;0.80;;;-4.50;99.90;-5.10;102684.00;;;;4812677;28;92279;-66
2023/02/05 02:26:58;;;;;;;2.37;1.40;;;-4.60;99.90;-5.10;102682.00;;;;4814525;29;93089;-66
2023/02/05 02:29:49;;;;;;;3.33;1.50;;;-4.30;99.90;-5.20;102688.00;;;;4811713;28;93773;-66
2023/02/05 02:32:51;;;;;;;1.70;0.83;;;-3.80;99.90;-5.20;102689.00;;;;4811432;29;106606;-67
2023/02/05 02:35:35;;;;;;;3.03;1.50;;;-4.50;99.90;-5.10;102681.00;;;;4812152;28;114822;-66
2023/02/05 02:38:14;;;;;;;1.33;1.03;;;-4.60;99.90;-5.20;102676.00;;;;4814652;28;93023;-66
2023/02/05 02:40:48;;;;;;;1.77;1.27;;;-4.50;99.90;-5.20;102677.00;;;;4809961;28;102861;-67
2023/02/05 02:43:47;;;;;;;0.83;0.77;;;-4.60;99.90;-5.20;102673.00;;;;4814520;28;93722;-66
2023/02/05 02:46:39;;;;;;;0.73;0.63;;;-4.60;99.90;-5.30;102671.00;;;;4812852;28;114408;-67
2023/02/05 02:49:11;;;;;;;1.40;1.23;;;-4.50;99.90;-5.20;102668.00;;;;4811167;28;92839;-66
2023/02/05 02:51:38;;;;;;;3.40;1.10;;;-4.60;99.90;-5.20;102662.00;;;;4830681;28;96880;-67
2023/02/05 02:54:11;;;;;;;1.37;1.00;;;-4.70;99.90;-5.30;102664.00;;;;4814115;28;98535;-66
2023/02/05 02:56:39;;;;;;;1.67;1.13;;;-4.60;99.90;-5.20;102661.00;;;;4826302;28;112284;-66
2023/02/05 02:59:13;;;;;;;1.97;1.07;;;-4.60;99.90;-5.30;102653.00;;;;4807980;28;104371;-66
2023/02/05 03:01:42;;;;;;;1.07;0.97;;;-4.70;99.90;-5.30;102653.00;;;;4813300;28;92926;-66
2023/02/05 03:04:18;;;;;;;0.87;0.80;;;-4.70;99.90;-5.30;102662.00;;;;4828861;28;102550;-66
2023/02/05 03:06:47;;;;;;;2.50;1.10;;;-4.70;99.90;-5.30;102644.00;;;;4822792;28;93485;-66
2023/02/05 03:09:36;;;;;;;2.17;1.40;;;-4.80;99.90;-5.40;102657.00;;;;4814273;28;101279;-66
2023/02/05 03:12:03;;;;;;;3.47;1.10;;;-4.80;99.90;-5.40;102649.00;;;;4815076;28;95156;-66
2023/02/05 03:14:29;;;;;;;1.20;0.97;;;-3.40;99.90;-5.40;102640.00;;;;4812321;28;94250;-66
2023/02/05 03:16:55;;;;;;;1.63;1.00;;;-4.60;99.90;-5.50;102630.00;;;;4815845;28;106463;-65
2023/02/05 03:19:21;;;;;;;1.10;0.70;;;-4.70;99.90;-5.50;102634.00;;;;4814699;28;109573;-65
2023/02/05 03:21:53;;;;;;;1.13;1.07;;;-4.80;99.90;-5.50;102639.00;;;;4812428;28;109177;-65
2023/02/05 03:24:19;;;;;;;1.30;1.07;;;-4.90;99.90;-5.50;102627.00;;;;4811815;28;114707;-66
2023/02/05 03:26:45;;;;;;;1.97;1.13;;;-4.90;99.90;-5.60;102626.00;;;;4810570;28;123073;-65
2023/02/05 03:29:15;;;;;;;1.00;0.90;;;-5.00;99.90;-5.60;102640.00;;;;4811465;28;109712;-65
2023/02/05 03:32:09;;;;;;;1.00;0.90;;;-4.80;99.90;-5.60;102644.00;;;;4809883;28;94189;-65
2023/02/05 03:35:07;;;;;;;1.30;1.00;;;-4.90;99.90;-5.60;102643.00;;;;4810477;28;111368;-65
2023/02/05 03:37:53;;;;;;;2.47;1.30;;;-4.90;99.90;-5.60;102648.00;;;;4824141;28;114959;-66
2023/02/05 03:40:21;;;;;;;2.17;1.40;;;-5.00;99.90;-5.60;102645.00;;;;4810018;29;93129;-64
2023/02/05 03:43:00;;;;;;;1.17;1.10;;;-5.00;99.90;-5.60;102645.00;;;;4828581;28;105944;-64
2023/02/05 03:45:37;;;;;;;3.10;1.20;;;-5.00;99.90;-5.60;102650.00;;;;4812348;28;114691;-66
2023/02/05 03:48:25;;;;;;;3.53;1.40;;;-5.10;99.90;-5.60;102659.00;;;;4813869;28;93135;-65
2023/02/05 03:51:29;;;;;;;1.60;1.30;;;-4.90;99.90;-5.60;102662.00;;;;4808458;28;93985;-64
2023/02/05 03:54:15;;;;;;;1.17;1.07;;;-5.00;99.90;-5.70;102659.00;;;;4824261;28;93063;-64
2023/02/05 03:57:03;;;;;;;1.20;1.10;;;-5.00;99.90;-5.70;102659.00;;;;4816519;28;112404;-65
2023/02/05 03:59:32;;;;;;;1.60;1.00;;;-5.10;99.90;-5.70;102655.00;;;;4816606;28;93217;-64
2023/02/05 04:01:58;;;;;;;1.73;1.27;;;-5.10;99.90;-5.70;102651.00;;;;4819575;28;92993;-64
2023/02/05 04:04:24;;;;;;;1.23;0.90;;;-5.10;99.90;-5.70;102655.00;;;;4815237;28;93042;-64
2023/02/05 04:06:52;;;;;;;0.97;0.87;;;-5.10;99.90;-5.70;102649.00;;;;4813015;28;116668;-64
2023/02/05 04:09:18;;;;;;;2.23;1.43;;;-5.00;99.90;-5.70;102662.00;;;;4815802;28;105021;-64
2023/02/05 04:11:44;;;;;;;5.37;1.40;;;-5.10;99.90;-5.70;102659.00;;;;4816796;28;101178;-64
2023/02/05 04:14:10;;;;;;;2.07;1.17;;;-4.50;99.90;-5.70;102652.00;;;;4813642;28;98586;-64
2023/02/05 04:16:35;;;;;;;2.53;1.27;;;-5.10;99.90;-5.80;102653.00;;;;4815390;28;123565;-64
2023/02/05 04:19:01;;;;;;;2.80;1.80;;;-5.20;99.90;-5.80;102660.00;;;;4812928;28;123240;-63
2023/02/05 04:21:27;;;;;;;2.87;1.40;;;-4.30;99.90;-5.80;102655.00;;;;4816505;28;111284;-65
2023/02/05 04:23:52;;;;;;;1.23;1.00;;;-5.10;99.90;-5.80;102660.00;;;;4815938;29;109178;-64
2023/02/05 04:26:18;;;;;;;1.17;1.17;;;-5.20;99.90;-5.90;102666.00;;;;4814639;28;121970;-64
2023/02/05 04:28:44;;;;;;;1.90;1.13;;;-5.30;99.90;-5.90;102661.00;;;;4817806;28;121885;-64
2023/02/05 04:31:11;;;;;;;1.87;1.20;;;-5.30;99.90;-6.00;102665.00;;;;4814490;28;111641;-64
2023/02/05 04:33:37;;;;;;;2.07;1.50;;;-5.30;99.90;-6.10;102671.00;;;;4816520;28;92112;-64
2023/02/05 04:36:04;;;;;;;1.40;1.30;;;-5.40;99.90;-6.10;102678.00;;;;4816141;29;97623;-65
2023/02/05 04:38:30;;;;;;;1.50;1.20;;;-5.40;99.90;-6.20;102657.00;;;;4814797;28;106617;-64
2023/02/05 04:40:55;;;;;;;4.77;1.37;;;-5.60;99.90;-6.20;102666.00;;;;4815816;28;110055;-64
2023/02/05 04:43:21;;;;;;;2.03;1.43;;;-5.70;99.90;-6.20;102660.00;;;;4817448;28;99826;-64
2023/02/05 04:45:47;;;;;;;2.00;1.47;;;-5.60;99.90;-6.20;102663.00;;;;4818322;28;122932;-64
2023/02/05 04:48:12;;;;;;;2.83;1.40;;;-5.50;99.90;-6.20;102672.00;;;;4818513;28;120694;-64
2023/02/05 04:50:38;;;;;;;2.20;1.53;;;-5.50;99.90;-6.20;102665.00;;;;4818130;28;92845;-64
2023/02/05 04:53:04;;;;;;;2.27;1.50;;;-5.60;99.90;-6.20;102670.00;;;;4815994;28;93029;-64
2023/02/05 04:55:31;;;;;;;2.67;1.57;;;-5.50;99.90;-6.20;102673.00;;;;4816965;28;121658;-64
2023/02/05 04:57:58;;;;;;;3.30;1.50;;;-5.50;99.90;-6.20;102654.00;;;;4817982;28;112504;-64
2023/02/05 05:00:25;;;;;;;1.67;1.57;;;-5.50;99.90;-6.20;102664.00;;;;4817958;28;101242;-64
2023/02/05 05:02:51;;;;;;;2.77;1.57;;;-5.60;99.90;-6.10;102675.00;;;;4816958;28;96006;-64
2023/02/05 05:05:17;;;;;;;2.47;1.60;;;-5.60;99.90;-6.10;102671.00;;;;4815500;29;123375;-64
2023/02/05 05:07:43;;;;;;;2.73;1.63;;;-5.50;99.90;-6.10;102662.00;;;;4815568;28;111628;-63
2023/02/05 05:10:10;;;;;;;1.83;1.30;;;-5.50;99.90;-6.10;102666.00;;;;4814562;28;109283;-65
2023/02/05 05:12:37;;;;;;;1.00;1.00;;;-5.60;99.90;-6.10;102679.00;;;;4817693;28;93025;-64
2023/02/05 05:15:05;;;;;;;2.80;1.97;;;-4.40;99.90;-6.10;102678.00;;;;4814611;28;116136;-65
2023/02/05 05:17:32;;;;;;;1.77;1.60;;;-5.40;99.90;-6.10;102671.00;;;;4815110;28;116339;-64
2023/02/05 05:19:58;;;;;;;4.23;2.00;;;-5.40;99.90;-6.10;102676.00;;;;4818175;28;93174;-63
2023/02/05 05:22:23;;;;;;;1.50;1.40;;;-5.50;99.90;-6.10;102668.00;;;;4816290;28;107157;-64
2023/02/05 05:24:49;;;;;;;1.33;1.23;;;-5.10;99.90;-6.10;102669.00;;;;4814408;28;123035;-64
2023/02/05 05:27:15;;;;;;;3.10;1.70;;;-5.40;99.90;-6.10;102676.00;;;;4815166;29;121569;-64
2023/02/05 05:29:41;;;;;;;2.97;1.90;;;-5.50;99.90;-6.10;102677.00;;;;4815486;28;95094;-64
2023/02/05 05:32:07;;;;;;;3.93;2.37;;;-5.50;99.90;-6.10;102674.00;;;;4813586;28;107110;-63
2023/02/05 05:34:33;;;;;;;3.17;2.10;;;-5.40;99.90;-6.10;102676.00;;;;4815735;28;121789;-64
2023/02/05 05:36:58;;;;;;;5.53;2.90;;;-5.40;99.90;-6.10;102685.00;;;;4816440;29;121606;-63
2023/02/05 05:44:55;;;;;;;12.07;4.10;;;-6.50;99.90;-6.20;102681.00;;;;4811278;28;92944;-63
2023/02/05 05:47:20;;;;;;;5.20;3.33;;;-5.40;99.90;-6.20;102690.00;;;;4812284;28;111058;-63
2023/02/05 05:49:46;;;;;;;4.00;2.60;;;-5.50;99.90;-6.30;102685.00;;;;4813568;28;109283;-63
2023/02/05 05:52:12;;;;;;;3.27;2.27;;;-5.40;99.90;-6.30;102671.00;;;;4816532;28;92797;-62
2023/02/05 05:54:38;;;;;;;3.93;2.27;;;-5.70;99.90;-6.30;102686.00;;;;4813009;28;114618;-62
2023/02/05 05:57:05;;;;;;;4.03;2.23;;;-5.70;99.90;-6.40;102670.00;;;;4812808;28;93768;-63
2023/02/05 05:59:31;;;;;;;3.90;2.03;;;-5.70;99.90;-6.30;102674.00;;;;4816360;28;92918;-63
2023/02/05 06:01:57;;;;;;;7.70;2.93;;;-5.70;99.90;-6.40;102666.00;;;;4811574;28;93199;-64
2023/02/05 06:04:22;;;;;;;4.70;3.17;;;-5.70;99.90;-6.40;102680.00;;;;4814998;28;122681;-65
2023/02/05 06:06:48;;;;;;;2.63;2.03;;;-5.70;99.90;-6.40;102682.00;;;;4813447;28;120737;-63
2023/02/05 06:09:14;;;;;;;2.20;1.90;;;-5.70;99.90;-6.40;102686.00;;;;4813797;28;110640;-62
2023/02/05 06:11:39;;;;;;;3.07;1.57;;;-5.80;99.90;-6.40;102677.00;;;;4814544;28;109100;-62
2023/02/05 06:14:05;;;;;;;4.53;1.80;;;-5.70;99.90;-6.40;102665.00;;;;4809889;29;122747;-62
2023/02/05 06:16:31;;;;;;;5.70;2.27;;;-6.60;99.90;-6.40;102682.00;;;;4809245;28;121675;-62
2023/02/05 06:18:56;;;;;;;3.00;2.20;;;-5.80;99.90;-6.30;102674.00;;;;4812410;28;105251;-62
2023/02/05 06:21:22;;;;;;;4.57;3.07;;;-5.70;99.90;-6.40;102669.00;;;;4810548;28;109249;-61
2023/02/05 06:23:48;;;;;;;4.23;2.63;;;-6.50;99.90;-6.40;102679.00;;;;4812063;28;122099;-62
2023/02/05 06:26:14;;;;;;;3.77;2.17;;;-5.70;99.90;-6.30;102683.00;;;;4813371;28;121306;-62
2023/02/05 06:28:40;;;;;;;3.93;2.50;;;-5.80;99.90;-6.30;102678.00;;;;4815243;28;111195;-63
2023/02/05 06:31:05;;;;;;;2.97;1.80;;;-5.70;99.90;-6.30;102670.00;;;;4817211;28;108494;-61
2023/02/05 06:33:31;;;;;;;2.77;1.80;;;-5.70;99.90;-6.20;102678.00;;;;4814867;28;123573;-62
2023/02/05 06:35:57;;;;;;;3.03;1.93;;;-5.70;99.90;-6.20;102669.00;;;;4814669;28;120480;-62
2023/02/05 06:38:22;;;;;;;3.40;1.90;;;-5.60;99.90;-6.10;102678.00;;;;4814110;28;110396;-62
2023/02/05 06:40:48;;;;;;;2.90;2.20;;;-5.60;99.90;-6.10;102693.00;;;;4813725;28;93170;-62
2023/02/05 06:43:14;;;;;;;3.90;1.77;;;-5.50;99.90;-6.00;102685.00;;;;4808546;28;123781;-63
2023/02/05 06:45:40;;;;;;;4.93;3.00;;;-5.30;99.90;-6.00;102698.00;;;;4813286;29;123441;-63
2023/02/05 06:48:06;;;;;;;3.70;2.73;;;-5.40;99.90;-5.90;102691.00;;;;4816844;28;111160;-62
2023/02/05 06:50:31;;;;;;;6.67;3.47;;;-5.40;99.90;-5.90;102692.00;;;;4812478;29;108430;-63
2023/02/05 06:52:57;;;;;;;7.97;5.20;;;-5.30;99.90;-5.80;102712.00;;;;4827703;28;122860;-61
2023/02/05 06:55:23;;;;;;;11.57;6.60;;;-5.20;99.90;-5.70;102707.00;;;;4813853;28;122227;-60
2023/02/05 06:57:49;;;;;;;6.73;4.13;;;-5.20;99.90;-5.70;102704.00;;;;4814259;28;92670;-61
2023/02/05 07:00:15;;;;;;;4.93;3.33;;;-5.00;99.90;-5.60;102709.00;;;;4813832;28;109075;-62
2023/02/05 07:02:42;;;;;;;5.50;2.40;;;-5.00;99.90;-5.60;102707.00;;;;4810799;28;92800;-61
2023/02/05 07:05:08;;;;;;;5.97;3.00;;;-5.00;99.90;-5.50;102705.00;;;;4812740;28;93321;-61
2023/02/05 07:07:33;;;;;;;2.40;2.20;;;-5.00;99.90;-5.40;102706.00;;;;4812689;28;98716;-62
2023/02/05 07:09:59;;;;;;;3.33;2.10;;;-4.90;99.90;-5.20;102711.00;;;;4816398;28;94053;-62
2023/02/05 07:12:25;;;;;;;2.07;1.57;;;-4.70;99.90;-5.10;102704.00;;;;4813144;28;112211;-62
2023/02/05 07:14:51;;;;;;;4.87;3.03;;;-4.60;99.90;-5.00;102701.00;;;;4805264;28;123279;-64
2023/02/05 07:17:16;;;;;;;17.13;8.57;;;-4.50;99.90;-4.90;102695.00;;;;4808955;28;93202;-62
2023/02/05 07:19:42;;;;;;;14.17;7.23;;;-4.40;99.90;-4.70;102699.00;;;;4810762;28;92952;-64
2023/02/05 07:22:09;;;;;;;8.63;4.00;;;-4.20;99.90;-4.50;102707.00;;;;4809044;28;93012;-61
2023/02/05 07:24:35;;;;;;;6.70;3.10;;;-4.10;99.90;-4.20;102706.00;;;;4806624;29;92853;-61
2023/02/05 07:27:00;;;;;;;3.87;2.70;;;-3.80;99.90;-4.00;102705.00;;;;4810019;29;109813;-64
2023/02/05 07:29:27;;;;;;;4.53;2.20;;;-3.60;99.90;-3.70;102695.00;;;;4804320;28;108987;-62
2023/02/05 07:31:52;;;;;;;4.33;2.73;;;-3.40;99.90;-3.50;102693.00;;;;4810314;28;109245;-64
2023/02/05 07:34:18;;;;;;;4.83;2.70;;;-3.10;99.90;-3.20;102699.00;;;;4804325;28;119691;-64
2023/02/05 07:36:44;;;;;;;2.63;1.63;;;-2.80;99.90;-2.90;102701.00;;;;4805948;28;109126;-64
2023/02/05 07:39:10;;;;;;;2.60;1.67;;;-2.60;99.90;-2.60;102710.00;;;;4809785;28;109436;-63
2023/02/05 07:41:35;;;;;;;1.93;1.40;;;-1.80;99.90;-2.40;102716.00;;;;4807074;28;104293;-64
2023/02/05 07:44:01;;;;;;;2.17;1.63;;;-2.00;99.90;-2.10;102709.00;;;;4803642;28;122213;-64
2023/02/05 07:46:27;;;;;;;2.17;1.00;;;-1.80;99.90;-1.90;102712.00;;;;4810790;28;109832;-65
2023/02/05 07:48:53;;;;;;;3.00;1.83;;;-1.60;99.90;-1.60;102708.00;;;;4809033;28;93463;-65
2023/02/05 07:51:23;;;;;;;2.77;2.10;;;-1.30;99.90;-1.30;102727.00;;;;4805205;28;122460;-66
2023/02/05 07:53:49;;;;;;;3.13;2.40;;;-0.90;99.90;-1.00;102721.00;;;;4811218;28;93358;-66
2023/02/05 07:56:16;;;;;;;3.53;1.10;;;-0.60;99.90;-0.80;102726.00;;;;4807385;28;93957;-67
2023/02/05 07:58:42;;;;;;;1.73;1.50;;;-0.40;99.90;-0.70;102715.00;;;;4807000;28;93212;-66
2023/02/05 08:01:08;;;;;;;1.57;1.47;;;-0.30;99.90;-0.70;102722.00;;;;4807086;28;93676;-66
2023/02/05 08:03:34;;;;;;;1.00;0.90;;;-0.30;99.90;-0.70;102720.00;;;;4808684;28;121697;-66
2023/02/05 08:06:07;;;;;;;1.40;1.30;;;-0.30;99.90;-0.90;102717.00;;;;4806424;28;92882;-66
2023/02/05 08:08:33;;;;;;;3.10;1.23;;;-0.40;99.90;-1.00;102711.00;;;;4806481;29;93032;-66
2023/02/05 08:11:03;;;;;;;1.20;1.10;;;0.10;99.90;-1.20;102714.00;;;;4806087;28;103620;-65
2023/02/05 08:13:29;;;;;;;2.00;1.53;;;-0.60;99.90;-1.40;102713.00;;;;4809056;28;115214;-65
2023/02/05 08:15:55;;;;;;;2.87;1.27;;;-0.80;99.90;-1.60;102711.00;;;;4807993;28;93153;-66
2023/02/05 08:18:21;;;;;;;1.00;0.90;;;-1.10;99.90;-1.70;102713.00;;;;4808340;28;92819;-65
2023/02/05 08:20:46;;;;;;;1.60;1.03;;;-1.10;99.90;-1.70;102696.00;;;;4807694;28;95106;-66
2023/02/05 08:23:12;;;;;;;2.10;1.20;;;-1.20;99.90;-1.70;102707.00;;;;4808223;28;123543;-66
2023/02/05 08:25:39;;;;;;;2.23;1.53;;;-1.30;99.90;-1.80;102688.00;;;;4807115;28;110506;-65
2023/02/05 08:28:04;;;;;;;1.83;1.40;;;-1.30;99.90;-1.90;102704.00;;;;4807485;28;93156;-65
2023/02/05 08:30:30;;;;;;;1.40;1.23;;;-1.40;99.90;-1.90;102703.00;;;;4810788;28;94276;-65
2023/02/05 08:32:56;;;;;;;2.63;1.60;;;-1.50;99.90;-1.90;102699.00;;;;4807327;28;122473;-65
2023/02/05 08:35:22;;;;;;;1.70;1.53;;;-1.50;99.90;-1.90;102696.00;;;;4821843;28;110339;-67
2023/02/05 08:37:47;;;;;;;2.43;1.10;;;-1.40;99.90;-1.80;102675.00;;;;4808642;28;107808;-65
2023/02/05 08:40:13;;;;;;;3.10;1.37;;;-1.50;99.90;-1.90;102671.00;;;;4807201;28;118018;-65
2023/02/05 08:42:39;;;;;;;1.50;1.40;;;-1.40;99.90;-1.90;102669.00;;;;4808375;28;93723;-65
2023/02/05 08:45:07;;;;;;;4.00;1.90;;;-1.50;99.90;-1.90;102659.00;;;;4810360;28;111969;-66
2023/02/05 08:47:34;;;;;;;3.33;2.07;;;-1.50;99.90;-1.90;102660.00;;;;4811404;28;92871;-65
2023/02/05 08:50:01;;;;;;;6.83;2.90;;;-1.50;99.90;-1.90;102662.00;;;;4812291;28;93532;-67
2023/02/05 08:52:27;;;;;;;2.77;1.47;;;-1.30;99.90;-1.80;102648.00;;;;4812169;28;116373;-65
2023/02/05 08:54:52;;;;;;;5.03;1.73;;;-1.40;99.90;-1.80;102659.00;;;;4811535;28;102083;-66
2023/02/05 08:57:18;;;;;;;3.37;1.70;;;-1.40;99.90;-1.70;102655.00;;;;4812157;28;109265;-66
2023/02/05 08:59:44;;;;;;;4.20;2.53;;;-1.30;99.90;-1.60;102659.00;;;;4811301;28;102959;-65
2023/02/05 09:02:18;;;;;;;8.23;5.67;;;-1.30;99.90;-1.50;102655.00;;;;4811128;28;121968;-65
2023/02/05 09:04:44;;;;;;;2.30;1.53;;;-1.10;99.90;-1.40;102654.00;;;;4811666;28;110623;-65
2023/02/05 09:07:09;;;;;;;3.17;2.87;;;-1.20;99.90;-1.30;102646.00;;;;4810623;28;107152;-66
2023/02/05 09:09:35;;;;;;;4.17;3.60;;;-1.00;99.90;-1.30;102646.00;;;;4811246;28;122102;-66
2023/02/05 09:12:01;;;;;;;6.77;2.97;;;-0.80;99.90;-1.20;102647.00;;;;4813451;29;93584;-66
2023/02/05 09:14:27;;;;;;;2.90;1.83;;;-0.90;99.90;-1.10;102653.00;;;;4813779;28;96839;-66
2023/02/05 09:16:53;;;;;;;1.57;1.20;;;-0.80;99.90;-1.10;102663.00;;;;4826569;28;92849;-66
2023/02/05 09:19:18;;;;;;;2.13;1.37;;;-0.70;99.90;-1.00;102672.00;;;;4811672;29;122179;-65
2023/02/05 09:21:44;;;;;;;5.90;1.00;;;-0.70;99.90;-1.00;102670.00;;;;4812330;28;123752;-65
2023/02/05 09:24:10;;;;;;;5.30;1.70;;;-0.70;99.90;-0.90;102676.00;;;;4812419;28;92937;-65
2023/02/05 09:26:36;;;;;;;2.67;1.83;;;-0.60;99.90;-0.90;102669.00;;;;4812275;28;109061;-65
2023/02/05 09:29:02;;;;;;;2.17;1.30;;;-0.60;99.90;-0.80;102646.00;;;;4814905;28;94377;-65
2023/02/05 09:31:28;;;;;;;2.30;1.27;;;-0.50;99.90;-0.70;102652.00;;;;4812397;28;92935;-65
2023/02/05 09:33:54;;;;;;;2.10;1.60;;;-0.40;99.90;-0.70;102659.00;;;;4813971;28;94073;-66
2023/02/05 09:36:22;;;;;;;3.33;1.47;;;0.20;99.90;-0.60;102639.00;;;;4816460;28;92901;-65
2023/02/05 09:38:49;;;;;;;0.73;0.60;;;-0.20;99.90;-0.50;102651.00;;;;4812477;29;94649;-65
2023/02/05 09:41:31;;;;;;;2.93;1.70;;;-0.20;99.90;-0.40;102640.00;;;;4813334;28;93954;-65
2023/02/05 09:44:09;;;;;;;4.00;1.70;;;0.00;99.90;-0.20;102648.00;;;;4815597;28;94311;-65
2023/02/05 09:47:00;;;;;;;1.00;0.90;;;0.10;99.90;-0.10;102643.00;;;;4814000;28;94092;-65
2023/02/05 09:49:33;;;;;;;4.07;1.57;;;0.10;99.90;0.00;102643.00;;;;4811772;28;93326;-66
2023/02/05 09:52:06;;;;;;;2.93;2.07;;;0.30;99.90;0.10;102644.00;;;;4812191;28;114270;-65
2023/02/05 09:54:38;;;;;;;2.43;1.30;;;0.40;99.90;0.20;102639.00;;;;4825841;28;93252;-65
2023/02/05 09:57:17;;;;;;;1.73;1.07;;;0.50;99.90;0.30;102639.00;;;;4813746;28;95808;-65
2023/02/05 09:59:45;;;;;;;1.67;1.07;;;0.50;99.90;0.40;102635.00;;;;4809217;28;94308;-66
2023/02/05 10:02:35;;;;;;;1.13;0.63;;;0.70;99.90;0.50;102627.00;;;;4812908;28;94244;-65
2023/02/05 10:05:02;;;;;;;3.83;1.37;;;0.70;99.90;0.60;102619.00;;;;4824986;28;93313;-65
2023/02/05 10:08:18;;;;;;;0.80;0.80;;;0.80;99.90;0.70;102617.00;;;;4814752;28;93000;-66
2023/02/05 10:10:49;;;;;;;1.80;1.70;;;1.00;99.90;0.80;102616.00;;;;4811620;28;115838;-66
2023/02/05 10:13:39;;;;;;;3.10;2.00;;;1.00;99.90;0.90;102609.00;;;;4824493;28;117886;-65
2023/02/05 10:16:45;;;;;;;1.33;1.23;;;1.20;99.90;1.00;102600.00;;;;4810627;28;104654;-66
2023/02/05 10:19:55;;;;;;;1.13;1.00;;;1.20;99.90;1.10;102604.00;;;;4824016;28;92240;-65
2023/02/05 10:22:37;;;;;;;2.90;1.40;;;1.30;99.90;1.10;102613.00;;;;4807517;28;115092;-66
2023/02/05 10:25:31;;;;;;;1.63;0.70;;;1.30;99.90;1.10;102622.00;;;;4809765;28;106919;-66
2023/02/05 10:28:51;;;;;;;1.67;0.70;;;1.40;99.90;1.10;102615.00;;;;4823536;28;100311;-67
2023/02/05 10:31:43;;;;;;;0.43;0.43;;;1.40;99.90;1.10;102618.00;;;;4811263;28;93899;-67
2023/02/05 10:34:29;;;;;;;2.77;1.33;;;1.50;99.90;1.20;102615.00;;;;4795122;29;94351;-66
2023/02/05 10:36:55;;;;;;;1.03;0.83;;;1.40;99.90;1.30;102609.00;;;;4812324;28;116840;-67
2023/02/05 10:39:28;;;;;;;2.33;1.53;;;1.50;99.90;1.30;102615.00;;;;4812068;28;109132;-67
2023/02/05 10:42:08;;;;;;;2.10;1.10;;;1.60;99.90;1.40;102620.00;;;;4811956;28;93017;-67
2023/02/05 10:44:43;;;;;;;0.60;0.60;;;1.60;99.90;1.60;102611.00;;;;4811947;28;92903;-67
2023/02/05 10:47:25;;;;;;;0.90;0.77;;;1.80;99.90;1.60;102603.00;;;;4812388;28;93416;-68
2023/02/05 10:50:17;;;;;;;0.27;0.27;;;1.80;99.90;1.40;102596.00;;;;4812078;28;92985;-68
2023/02/05 10:52:43;;;;;;;0.77;0.43;;;1.80;99.90;1.50;102605.00;;;;4814299;28;93328;-68
2023/02/05 10:55:12;;;;;;;2.23;1.07;;;1.70;99.90;1.50;102598.00;;;;4806630;28;123879;-68
2023/02/05 10:57:38;;;;;;;0.73;0.73;;;1.70;99.90;1.40;102586.00;;;;4810066;28;103579;-69
2023/02/05 11:00:19;;;;;;;1.77;0.67;;;1.70;99.90;1.50;102596.00;;;;4811098;28;92783;-68
2023/02/05 11:02:50;;;;;;;1.13;0.53;;;1.80;99.90;1.50;102608.00;;;;4809540;28;93050;-69